createdAt,value
2018-07-28T06:25:21.302Z,7.80
2018-07-28T06:28:32.285Z,7.40
2018-07-28T06:31:18.683Z,7.08
2018-07-28T06:35:46.332Z,7.12
2018-07-28T06:39:45.146Z,7.10
2018-07-28T06:42:28.361Z,7.45
2018-07-28T06:45:07.973Z,6.20
2018-07-28T06:48:05.873Z,8.53
2018-07-28T06:50:50.653Z,7.33
2018-07-28T06:53:26.833Z,16.00
2018-07-28T06:55:56.573Z,6.50
2018-07-28T06:59:25.103Z,10.88
2018-07-28T07:04:14.893Z,7.17
2018-07-28T07:07:14.973Z,6.25
2018-07-28T07:09:51.153Z,6.90
2018-07-28T07:12:40.413Z,6.70
2018-07-28T07:15:12.313Z,6.90
2018-07-28T07:17:41.781Z,7.55
2018-07-28T07:20:11.653Z,7.97
2018-07-28T07:22:41.101Z,6.87
2018-07-28T07:25:24.433Z,9.13
2018-07-28T07:27:54.021Z,7.75
2018-07-28T07:30:23.640Z,7.05
2018-07-28T07:32:53.033Z,6.80
2018-07-28T07:35:22.674Z,7.62
2018-07-28T07:37:52.621Z,9.30
2018-07-28T07:40:22.201Z,16.45
2018-07-28T07:42:51.656Z,6.78
2018-07-28T07:45:21.280Z,6.75
2018-07-28T07:47:50.773Z,7.22
2018-07-28T07:50:20.433Z,7.40
2018-07-28T07:52:50.001Z,7.33
2018-07-28T07:55:20.061Z,7.58
2018-07-28T07:57:49.534Z,6.33
2018-07-28T08:00:19.272Z,8.48
2018-07-28T08:02:49.281Z,7.08
2018-07-28T08:05:19.472Z,7.42
2018-07-28T08:07:49.532Z,10.38
2018-07-28T08:10:19.296Z,7.10
2018-07-28T08:12:49.813Z,7.22
2018-07-28T08:15:26.693Z,7.53
2018-07-28T08:17:56.373Z,8.08
2018-07-28T08:20:27.913Z,7.55
2018-07-28T08:22:57.650Z,7.80
2018-07-28T08:25:27.772Z,8.15
2018-07-28T08:27:58.261Z,7.62
2018-07-28T08:30:28.013Z,8.03
2018-07-28T08:32:58.134Z,7.33
2018-07-28T08:35:29.393Z,6.97
2018-07-28T08:37:59.214Z,6.97
2018-07-28T08:40:29.160Z,7.22
2018-07-28T08:42:59.081Z,6.87
2018-07-28T08:45:28.781Z,6.72
2018-07-28T08:47:58.262Z,6.58
2018-07-28T08:50:28.284Z,6.53
2018-07-28T08:52:58.123Z,9.95
2018-07-28T08:55:28.286Z,6.05
2018-07-28T08:57:57.943Z,5.95
2018-07-28T09:00:27.486Z,6.25
2018-07-28T09:02:57.118Z,5.97
2018-07-28T09:05:36.998Z,5.78
2018-07-28T09:08:07.158Z,6.75
2018-07-28T09:10:37.960Z,6.05
2018-07-28T09:13:08.641Z,5.65
2018-07-28T09:15:38.538Z,7.55
2018-07-28T09:18:08.386Z,6.20
2018-07-28T09:20:38.339Z,6.25
2018-07-28T09:23:08.327Z,6.20
2018-07-28T09:25:38.199Z,6.17
2018-07-28T09:28:08.766Z,6.78
2018-07-28T09:30:38.905Z,5.97
2018-07-28T09:33:08.899Z,6.90
2018-07-28T09:35:38.779Z,6.95
2018-07-28T09:38:18.518Z,7.00
2018-07-28T09:40:48.838Z,6.78
2018-07-28T09:43:20.126Z,7.00
2018-07-28T09:45:50.193Z,7.40
2018-07-28T09:48:20.499Z,7.10
2018-07-28T09:50:50.539Z,6.97
2018-07-28T09:53:20.647Z,7.62
2018-07-28T09:55:50.606Z,7.78
2018-07-28T09:58:20.326Z,7.90
2018-07-28T10:00:55.047Z,8.00
2018-07-28T10:03:24.986Z,7.05
2018-07-28T10:05:55.004Z,7.33
2018-07-28T10:08:24.888Z,7.47
2018-07-28T10:10:54.768Z,6.87
2018-07-28T10:13:25.370Z,6.83
2018-07-28T10:15:55.445Z,7.75
2018-07-28T10:18:26.144Z,6.70
2018-07-28T10:20:56.366Z,7.30
2018-07-28T10:23:26.321Z,6.40
2018-07-28T10:25:56.487Z,6.90
2018-07-28T10:28:26.346Z,6.42
2018-07-28T10:30:56.102Z,6.50
2018-07-28T10:33:25.757Z,6.50
2018-07-28T10:35:55.305Z,6.50
2018-07-28T10:38:24.809Z,6.30
2018-07-28T10:40:54.415Z,6.97
2018-07-28T10:43:28.035Z,6.70
2018-07-28T10:45:58.059Z,6.00
2018-07-28T10:48:29.119Z,6.50
2018-07-28T10:51:04.301Z,6.50
2018-07-28T10:53:37.618Z,6.60
2018-07-28T10:56:07.844Z,6.70
2018-07-28T10:58:39.260Z,6.12
2018-07-28T11:01:09.550Z,6.72
2018-07-28T11:03:39.352Z,6.70
2018-07-28T11:06:09.561Z,6.22
2018-07-28T11:08:40.245Z,6.37
2018-07-28T11:11:13.948Z,7.05
2018-07-28T11:14:00.113Z,6.72
2018-07-28T11:16:32.901Z,6.33
2018-07-28T11:19:03.553Z,6.83
2018-07-28T11:21:37.455Z,6.80
2018-07-28T11:24:10.041Z,6.75
2018-07-28T11:26:49.717Z,7.33
2018-07-28T11:29:39.199Z,6.80
2018-07-28T11:32:19.732Z,7.25
2018-07-28T11:35:01.233Z,6.53
2018-07-28T11:37:41.591Z,6.53
2018-07-28T11:40:23.150Z,7.10
2018-07-28T11:43:03.208Z,7.20
2018-07-28T11:45:32.949Z,6.67
2018-07-28T11:48:02.449Z,7.50
2018-07-28T11:50:32.052Z,7.55
2018-07-28T11:53:01.670Z,6.72
2018-07-28T11:55:31.408Z,7.25
2018-07-28T11:58:01.093Z,6.95
2018-07-28T12:00:30.907Z,7.50
2018-07-28T12:03:00.746Z,6.45
2018-07-28T12:05:30.509Z,7.25
2018-07-28T12:08:00.480Z,6.92
2018-07-28T12:10:30.559Z,7.15
2018-07-28T12:13:00.100Z,6.67
2018-07-28T12:15:30.023Z,7.17
2018-07-28T12:17:59.900Z,7.05
2018-07-28T12:20:29.705Z,7.03
2018-07-28T12:22:59.303Z,6.90
2018-07-28T12:25:29.186Z,6.37
2018-07-28T12:27:58.824Z,6.75
2018-07-28T12:30:28.603Z,6.22
2018-07-28T12:32:59.323Z,5.97
2018-07-28T12:35:29.261Z,6.65
2018-07-28T12:37:58.801Z,6.15
2018-07-28T12:40:28.623Z,5.78
2018-07-28T12:42:59.324Z,6.65
2018-07-28T12:45:29.079Z,6.80
2018-07-28T12:47:58.700Z,6.67
2018-07-28T12:50:28.579Z,6.20
2018-07-28T12:52:58.727Z,5.67
2018-07-28T12:55:32.353Z,5.78
2018-07-28T12:58:02.067Z,5.97
2018-07-28T13:00:32.840Z,5.90
2018-07-28T13:03:02.963Z,5.70
2018-07-28T13:05:33.299Z,5.62
2018-07-28T13:08:03.400Z,5.58
2018-07-28T13:10:33.421Z,5.50
2018-07-28T13:13:03.895Z,5.67
2018-07-28T13:15:57.286Z,5.87
2018-07-28T13:27:51.242Z,6.08
2018-07-28T13:30:24.138Z,5.37
2018-07-28T13:36:18.802Z,5.50
2018-07-28T13:38:50.343Z,6.25
2018-07-28T14:11:59.499Z,6.70
2018-07-28T14:14:42.519Z,6.40
2018-07-28T14:17:17.444Z,6.15
2018-07-28T14:25:58.818Z,6.30
2018-07-28T14:50:00.249Z,7.33
2018-07-28T14:52:41.365Z,7.40
2018-07-28T14:55:21.132Z,7.55
2018-07-28T14:57:50.524Z,7.20
2018-07-28T15:00:31.952Z,7.25
2018-07-28T15:03:08.605Z,7.15
2018-07-28T15:05:38.213Z,7.22
2018-07-28T15:11:06.537Z,7.85
2018-07-28T15:13:40.765Z,8.00
2018-07-28T15:16:11.454Z,7.42
2018-07-28T15:18:42.655Z,7.83
2018-07-28T15:21:13.356Z,7.62
2018-07-28T15:23:46.985Z,7.17
2018-07-28T15:26:18.164Z,7.00
2018-07-28T15:28:49.664Z,6.75
2018-07-28T15:34:24.632Z,6.70
2018-07-28T15:36:57.227Z,6.30
2018-07-28T15:39:27.352Z,6.10
2018-07-28T15:41:57.885Z,6.22
2018-07-28T15:44:33.368Z,6.10
2018-07-28T15:47:10.272Z,5.80
2018-07-28T15:56:02.812Z,5.12
2018-07-28T15:58:32.753Z,5.33
2018-07-28T16:13:03.660Z,6.55
2018-07-28T16:15:55.818Z,5.95
2018-07-28T16:18:27.852Z,6.17
2018-07-28T16:20:58.663Z,5.75
2018-07-28T16:23:30.391Z,6.40
2018-07-28T16:26:00.443Z,6.30
2018-07-28T16:31:28.446Z,6.33
2018-07-28T16:34:00.572Z,6.20
2018-07-28T16:36:34.863Z,6.30
2018-07-28T16:39:08.073Z,6.33
2018-07-28T17:09:12.211Z,7.55
2018-07-28T17:14:59.285Z,7.08
2018-07-28T17:17:39.170Z,7.30
2018-07-28T17:20:27.326Z,7.67
2018-07-28T17:26:03.768Z,7.70
2018-07-28T17:28:42.951Z,8.30
2018-07-28T17:31:13.276Z,8.48
2018-07-28T17:52:36.490Z,9.55
2018-07-28T17:55:07.503Z,9.50
2018-07-28T17:57:37.630Z,10.32
2018-07-28T18:00:11.331Z,10.08
2018-07-28T18:02:57.713Z,10.95
2018-07-28T18:05:39.416Z,11.25
2018-07-28T18:08:09.790Z,11.18
2018-07-28T18:10:41.191Z,11.18
2018-07-28T18:13:23.268Z,11.63
2018-07-28T18:16:09.887Z,11.15
2018-07-28T18:19:05.565Z,11.57
2018-07-28T18:32:04.323Z,13.15
2018-07-28T18:34:38.703Z,13.70
2018-07-28T18:37:22.712Z,13.32
2018-07-28T18:39:59.688Z,13.48
2018-07-28T18:42:30.311Z,14.13
2018-07-28T18:45:05.712Z,14.03
2018-07-28T18:47:35.925Z,13.40
2018-07-28T18:50:13.350Z,14.45
2018-07-28T18:52:45.570Z,13.30
2018-07-28T19:02:06.997Z,13.00
2018-07-28T19:04:37.601Z,13.95
2018-07-28T19:07:09.757Z,14.33
2018-07-28T19:09:54.104Z,14.10
2018-07-28T19:21:38.456Z,15.55
2018-07-28T19:25:09.184Z,16.12
2018-07-28T19:36:43.294Z,18.60
2018-07-28T19:39:16.137Z,16.85
2018-07-28T19:41:52.134Z,19.62
2018-07-28T19:44:33.951Z,18.90
2018-07-28T19:47:05.082Z,18.87
2018-07-28T19:49:39.114Z,19.75
2018-07-28T19:52:12.444Z,19.15
2018-07-28T19:54:52.857Z,19.42
2018-07-28T20:06:57.307Z,18.17
2018-07-28T20:09:29.067Z,18.32
2018-07-28T20:12:00.080Z,17.52
2018-07-28T20:14:32.564Z,18.27
2018-07-28T20:17:05.381Z,18.02
2018-07-28T20:19:53.609Z,16.80
2018-07-28T20:22:31.691Z,17.10
2018-07-28T20:25:07.853Z,17.52
2018-07-28T21:15:27.694Z,20.05
2018-07-28T21:17:59.258Z,19.05
2018-07-28T21:20:29.951Z,17.75
2018-07-28T21:23:01.821Z,19.35
2018-07-28T21:25:34.843Z,20.65
2018-07-28T21:28:08.811Z,22.07
2018-07-28T21:30:46.062Z,23.02
2018-07-28T21:38:03.529Z,21.05
2018-07-28T21:47:00.924Z,21.12
2018-07-28T21:49:35.867Z,21.85
2018-07-28T21:52:19.100Z,21.93
